Time;durP1;ratioP1;P1;durP2;ratioP2;P2;SDS_P1;SDS_P2;PMS_P1;PMS_P2;Temp;Humidity;BMP_temperature;BMP_pressure;BME280_temperature;BME280_humidity;BME280_pressure;Samples;Min_cycle;Max_cycle;Signal;HPM_P1;HPM_P2
2022/07/16 00:01:28;;;;;;;6.27;4.17;;;19.10;35.30;;;;;;5111296;28;20307;-50
2022/07/16 00:03:56;;;;;;;11.60;4.35;;;19.00;35.20;;;;;;5114017;28;20534;-49
2022/07/16 00:06:25;;;;;;;6.28;4.20;;;19.00;35.20;;;;;;5113451;28;20187;-49
2022/07/16 00:08:51;;;;;;;6.85;4.28;;;19.00;35.20;;;;;;5114636;28;20190;-49
2022/07/16 00:11:18;;;;;;;6.40;3.92;;;19.10;35.50;;;;;;5112486;28;20527;-49
2022/07/16 00:13:44;;;;;;;6.45;4.10;;;19.00;35.10;;;;;;5114023;28;20619;-49
2022/07/16 00:16:11;;;;;;;7.18;4.05;;;19.00;35.30;;;;;;5113443;28;20190;-49
2022/07/16 00:21:22;;;;;;;9.95;3.97;;;18.90;35.80;;;;;;5116701;28;20194;-51
2022/07/16 00:23:48;;;;;;;4.00;3.42;;;18.90;35.90;;;;;;5116651;28;20162;-49
2022/07/16 00:26:14;;;;;;;4.37;3.37;;;18.90;35.80;;;;;;5116259;28;20187;-49
2022/07/16 00:28:40;;;;;;;6.63;4.17;;;18.90;35.90;;;;;;5116614;28;20234;-49
2022/07/16 00:31:05;;;;;;;4.67;3.70;;;19.00;35.80;;;;;;5117653;28;20266;-51
2022/07/16 00:33:31;;;;;;;4.57;3.17;;;19.00;35.90;;;;;;5116440;28;20167;-49
2022/07/16 00:35:57;;;;;;;5.60;3.37;;;18.90;35.80;;;;;;5116110;28;20240;-50
2022/07/16 00:38:23;;;;;;;5.83;3.87;;;19.00;35.80;;;;;;5116386;28;20447;-51
2022/07/16 00:40:49;;;;;;;4.00;2.93;;;19.00;35.80;;;;;;5117836;28;20206;-48
2022/07/16 00:43:15;;;;;;;6.33;3.30;;;19.00;35.80;;;;;;5117700;28;20204;-51
2022/07/16 00:45:41;;;;;;;4.20;3.30;;;19.00;36.00;;;;;;5118844;28;20230;-49
2022/07/16 00:48:08;;;;;;;5.28;3.70;;;19.00;36.20;;;;;;5119117;28;20183;-49
2022/07/16 00:50:36;;;;;;;4.60;3.25;;;19.00;36.30;;;;;;5116309;28;20627;-48
2022/07/16 00:53:07;;;;;;;8.32;3.03;;;19.00;36.30;;;;;;5116057;28;20175;-49
2022/07/16 00:55:32;;;;;;;4.82;3.17;;;19.00;36.40;;;;;;5115756;28;20248;-50
2022/07/16 00:57:59;;;;;;;3.67;3.30;;;19.00;36.20;;;;;;5116000;28;20171;-49
2022/07/16 01:00:25;;;;;;;4.70;3.35;;;19.00;36.20;;;;;;5116555;22;20216;-45
2022/07/16 01:02:51;;;;;;;3.67;2.90;;;19.00;36.20;;;;;;5095543;28;20172;-45
2022/07/16 01:05:18;;;;;;;5.97;3.83;;;19.00;36.40;;;;;;5095420;28;20172;-45
2022/07/16 01:07:45;;;;;;;4.68;3.63;;;19.00;36.30;;;;;;5095224;28;20401;-45
2022/07/16 01:10:12;;;;;;;4.97;2.38;;;19.00;36.30;;;;;;5095351;28;20199;-45
2022/07/16 01:12:39;;;;;;;4.35;3.03;;;19.00;36.20;;;;;;5095563;28;20180;-45
2022/07/16 01:15:05;;;;;;;4.25;3.05;;;19.00;36.20;;;;;;5094005;28;20168;-44
2022/07/16 01:17:31;;;;;;;3.28;2.97;;;19.00;36.30;;;;;;5094983;28;20627;-44
2022/07/16 01:19:57;;;;;;;4.70;2.83;;;19.00;36.30;;;;;;5094996;28;20267;-45
2022/07/16 01:22:25;;;;;;;8.70;3.77;;;19.00;36.30;;;;;;5095090;28;20583;-45
2022/07/16 01:24:52;;;;;;;5.95;3.63;;;19.00;36.50;;;;;;5095333;28;20405;-45
2022/07/16 01:27:20;;;;;;;4.45;3.00;;;19.00;36.30;;;;;;5094538;28;20179;-45
2022/07/16 01:29:47;;;;;;;4.53;3.25;;;19.00;36.50;;;;;;5094987;28;20287;-45
2022/07/16 01:32:13;;;;;;;3.03;2.60;;;19.00;36.50;;;;;;5094901;28;20175;-44
2022/07/16 01:34:38;;;;;;;5.10;3.60;;;18.90;36.60;;;;;;5093664;28;20190;-45
2022/07/16 01:37:08;;;;;;;8.23;3.40;;;19.00;36.60;;;;;;5094707;28;20902;-45
2022/07/16 01:39:36;;;;;;;3.90;2.80;;;18.90;37.30;;;;;;5094764;28;20929;-45
2022/07/16 01:42:05;;;;;;;9.00;3.08;;;18.90;36.60;;;;;;5094666;28;20203;-44
2022/07/16 01:44:34;;;;;;;4.88;3.22;;;18.90;36.80;;;;;;5094692;28;20815;-44
2022/07/16 01:47:02;;;;;;;4.40;2.78;;;18.90;36.90;;;;;;5094487;28;20184;-45
2022/07/16 01:49:37;;;;;;;3.70;2.45;;;18.90;36.80;;;;;;5094541;28;20300;-45
2022/07/16 01:52:08;;;;;;;6.22;3.22;;;18.90;37.10;;;;;;5094905;28;20175;-45
2022/07/16 01:54:35;;;;;;;4.97;2.38;;;18.80;37.10;;;;;;5094617;28;20171;-45
2022/07/16 01:57:01;;;;;;;3.53;2.45;;;18.80;37.10;;;;;;5094355;28;20172;-45
2022/07/16 01:59:27;;;;;;;4.60;2.60;;;18.80;37.30;;;;;;5094237;28;20742;-45
2022/07/16 02:01:52;;;;;;;2.80;2.13;;;18.80;37.10;;;;;;5094409;28;20184;-44
2022/07/16 02:04:18;;;;;;;8.13;3.43;;;18.80;37.20;;;;;;5094351;28;20410;-45
2022/07/16 02:06:44;;;;;;;4.53;2.43;;;18.90;37.10;;;;;;5094067;28;20172;-45
2022/07/16 02:09:09;;;;;;;5.53;3.13;;;18.90;37.10;;;;;;5094234;28;20191;-45
2022/07/16 02:11:35;;;;;;;3.83;2.40;;;18.90;37.20;;;;;;5094249;28;20251;-44
2022/07/16 02:14:01;;;;;;;6.50;2.50;;;18.90;37.10;;;;;;5094061;28;20176;-44
2022/07/16 02:16:27;;;;;;;4.20;2.50;;;18.90;37.10;;;;;;5094107;28;20179;-44
2022/07/16 02:18:53;;;;;;;3.97;2.20;;;18.90;37.30;;;;;;5094130;28;20246;-44
2022/07/16 02:21:18;;;;;;;2.40;1.83;;;18.90;37.40;;;;;;5094010;28;20960;-44
2022/07/16 02:23:44;;;;;;;2.63;2.40;;;18.90;37.20;;;;;;5094011;28;20233;-45
2022/07/16 02:26:10;;;;;;;4.13;2.30;;;18.90;37.30;;;;;;5093743;28;20172;-44
2022/07/16 02:28:36;;;;;;;6.10;2.73;;;18.90;37.40;;;;;;5093728;28;20168;-45
2022/07/16 02:31:01;;;;;;;3.03;1.97;;;18.90;37.30;;;;;;5093755;28;20194;-44
2022/07/16 02:33:27;;;;;;;2.33;1.70;;;18.90;37.20;;;;;;5093755;28;20197;-44
2022/07/16 02:35:53;;;;;;;2.50;1.93;;;18.90;37.10;;;;;;5093659;28;20207;-45
2022/07/16 02:38:19;;;;;;;4.37;2.27;;;18.90;37.00;;;;;;5093728;28;20172;-44
2022/07/16 02:40:44;;;;;;;5.20;1.93;;;18.90;37.20;;;;;;5091439;28;20227;-44
2022/07/16 02:43:12;;;;;;;3.93;2.17;;;19.00;37.20;;;;;;5093622;28;20414;-45
2022/07/16 02:45:39;;;;;;;5.75;2.63;;;19.00;37.30;;;;;;5093537;28;20176;-45
2022/07/16 02:48:05;;;;;;;3.05;1.33;;;19.00;37.20;;;;;;5093463;28;20218;-44
2022/07/16 02:50:31;;;;;;;8.43;2.17;;;19.00;37.20;;;;;;5093609;28;20196;-44
2022/07/16 02:52:57;;;;;;;3.70;2.72;;;19.00;37.20;;;;;;5093690;28;20180;-44
2022/07/16 02:55:24;;;;;;;3.03;2.30;;;19.00;37.40;;;;;;5093245;28;20175;-44
2022/07/16 02:57:50;;;;;;;3.22;1.80;;;19.00;37.20;;;;;;5093117;28;20761;-44
2022/07/16 03:00:16;;;;;;;2.42;1.63;;;19.00;37.00;;;;;;5093046;28;20555;-44
2022/07/16 03:02:43;;;;;;;3.20;1.67;;;19.00;37.00;;;;;;5093208;28;20524;-44
2022/07/16 03:05:10;;;;;;;3.08;2.10;;;19.00;37.10;;;;;;5093254;28;20164;-44
2022/07/16 03:07:37;;;;;;;9.63;1.92;;;19.00;37.20;;;;;;5093037;28;20229;-44
2022/07/16 03:10:03;;;;;;;3.97;2.60;;;19.00;38.00;;;;;;5093298;28;20203;-45
2022/07/16 03:12:29;;;;;;;3.63;1.95;;;18.90;37.30;;;;;;5092974;28;20527;-44
2022/07/16 03:14:55;;;;;;;3.13;1.70;;;18.90;37.40;;;;;;5093006;28;20172;-44
2022/07/16 03:17:21;;;;;;;2.60;1.90;;;18.90;37.40;;;;;;5092674;28;20543;-44
2022/07/16 03:19:47;;;;;;;4.50;2.03;;;18.90;37.50;;;;;;5093127;28;20192;-44
2022/07/16 03:22:13;;;;;;;2.63;1.83;;;18.90;37.60;;;;;;5092767;28;20245;-44
2022/07/16 03:24:38;;;;;;;6.67;2.00;;;18.90;37.50;;;;;;5093061;28;20296;-45
2022/07/16 03:27:04;;;;;;;3.00;1.87;;;18.90;37.40;;;;;;5092943;28;20172;-44
2022/07/16 03:29:30;;;;;;;3.80;2.50;;;18.90;37.60;;;;;;5092855;28;20222;-44
2022/07/16 03:31:56;;;;;;;3.77;2.30;;;18.90;37.60;;;;;;5092884;28;20182;-44
2022/07/16 03:34:22;;;;;;;3.13;2.23;;;18.90;37.70;;;;;;5092803;28;20406;-45
2022/07/16 03:36:47;;;;;;;2.50;1.52;;;18.90;37.70;;;;;;5092381;28;20171;-44
2022/07/16 03:39:13;;;;;;;3.87;2.10;;;18.80;37.50;;;;;;5092628;28;20671;-44
2022/07/16 03:41:39;;;;;;;4.00;2.03;;;18.90;37.50;;;;;;5092488;28;20516;-44
2022/07/16 03:44:07;;;;;;;3.27;1.80;;;18.80;37.60;;;;;;5092485;28;20175;-44
2022/07/16 03:46:35;;;;;;;3.10;2.17;;;18.80;37.70;;;;;;5092390;28;20168;-44
2022/07/16 03:49:02;;;;;;;2.70;1.90;;;18.80;37.90;;;;;;5092372;28;20195;-44
2022/07/16 03:51:28;;;;;;;7.25;1.98;;;18.80;38.00;;;;;;5092139;28;20176;-44
2022/07/16 03:53:54;;;;;;;2.55;1.98;;;18.80;37.90;;;;;;5092310;28;20214;-45
2022/07/16 03:56:21;;;;;;;3.10;1.90;;;18.80;38.10;;;;;;5092206;28;20191;-45
2022/07/16 03:58:46;;;;;;;5.10;2.40;;;18.80;37.90;;;;;;5092286;28;20471;-44
2022/07/16 04:01:12;;;;;;;2.93;1.90;;;18.80;37.90;;;;;;5092047;28;20679;-44
2022/07/16 04:03:38;;;;;;;1.83;1.00;;;18.80;37.40;;;;;;5092181;28;20175;-44
2022/07/16 04:06:05;;;;;;;3.43;1.70;;;18.80;37.00;;;;;;5093809;28;20176;-44
2022/07/16 04:08:31;;;;;;;1.83;1.00;;;18.80;36.80;;;;;;5095075;28;20168;-44
2022/07/16 04:10:57;;;;;;;2.43;1.30;;;18.80;35.90;;;;;;5095630;28;20268;-43
2022/07/16 04:13:23;;;;;;;3.27;1.10;;;18.90;36.30;;;;;;5095547;28;20406;-44
2022/07/16 04:15:49;;;;;;;3.15;1.10;;;18.90;36.20;;;;;;5095064;28;20401;-44
2022/07/16 04:18:14;;;;;;;5.00;1.20;;;19.00;36.30;;;;;;5095347;28;20203;-43
2022/07/16 04:20:41;;;;;;;3.30;1.20;;;19.10;36.10;;;;;;5094939;28;20628;-44
2022/07/16 04:23:06;;;;;;;2.03;1.17;;;19.10;36.30;;;;;;5092169;28;20430;-45
2022/07/16 04:25:32;;;;;;;2.60;1.60;;;19.20;36.40;;;;;;5092129;28;20253;-45
2022/07/16 04:27:58;;;;;;;2.20;1.20;;;19.30;36.90;;;;;;5092005;28;20180;-45
2022/07/16 04:30:24;;;;;;;2.43;1.10;;;19.30;36.30;;;;;;5091865;28;20233;-45
2022/07/16 04:32:50;;;;;;;2.17;1.40;;;19.40;36.50;;;;;;5091987;28;20405;-44
2022/07/16 04:35:16;;;;;;;2.03;1.20;;;19.50;36.00;;;;;;5092111;28;20658;-45
2022/07/16 04:37:42;;;;;;;1.90;0.90;;;19.60;35.60;;;;;;5091622;28;20406;-44
2022/07/16 04:40:10;;;;;;;1.80;1.25;;;19.70;34.90;;;;;;5091783;28;20195;-44
2022/07/16 04:42:37;;;;;;;3.70;1.58;;;19.70;34.70;;;;;;5092118;28;20210;-44
2022/07/16 04:45:04;;;;;;;2.78;1.20;;;19.70;34.70;;;;;;5091859;28;20164;-45
2022/07/16 04:47:30;;;;;;;2.80;1.73;;;19.70;34.70;;;;;;5091723;28;20536;-44
2022/07/16 04:49:55;;;;;;;2.00;1.33;;;19.80;34.60;;;;;;5092049;28;20214;-45
2022/07/16 04:52:21;;;;;;;2.47;1.10;;;19.80;34.40;;;;;;5091688;28;20313;-44
2022/07/16 04:54:47;;;;;;;3.87;1.37;;;19.90;34.50;;;;;;5092040;28;20267;-45
2022/07/16 04:57:13;;;;;;;2.60;1.10;;;20.00;34.50;;;;;;5091533;28;20186;-44
2022/07/16 04:59:39;;;;;;;2.47;1.13;;;20.10;34.50;;;;;;5091556;28;20487;-45
2022/07/16 05:04:49;;;;;;;3.22;1.77;;;20.30;34.70;;;;;;5095494;28;20155;-44
2022/07/16 05:07:14;;;;;;;3.37;1.70;;;20.40;34.80;;;;;;5095295;28;20168;-45
2022/07/16 05:09:40;;;;;;;2.90;1.30;;;20.40;34.70;;;;;;5095312;28;20188;-45
2022/07/16 05:12:06;;;;;;;3.90;1.73;;;20.50;34.80;;;;;;5095613;28;20183;-44
2022/07/16 05:14:32;;;;;;;2.00;0.97;;;20.50;34.30;;;;;;5095415;28;20642;-45
2022/07/16 05:16:58;;;;;;;3.10;1.20;;;20.60;34.20;;;;;;5095097;28;20416;-44
2022/07/16 05:19:24;;;;;;;2.23;1.00;;;20.60;34.20;;;;;;5095174;28;20195;-44
2022/07/16 05:21:50;;;;;;;1.73;0.83;;;20.60;34.10;;;;;;5095372;28;20191;-45
2022/07/16 05:24:15;;;;;;;1.80;1.20;;;20.70;33.80;;;;;;5095195;28;20769;-44
2022/07/16 05:26:41;;;;;;;2.10;1.00;;;20.70;33.90;;;;;;5094808;28;20406;-44
2022/07/16 05:29:07;;;;;;;1.83;1.10;;;20.80;33.70;;;;;;5094979;28;20251;-45
2022/07/16 05:31:33;;;;;;;2.30;1.33;;;20.80;33.60;;;;;;5095019;28;20405;-44
2022/07/16 05:33:59;;;;;;;2.60;1.20;;;20.90;33.20;;;;;;5095012;28;20168;-45
2022/07/16 05:36:25;;;;;;;2.30;1.20;;;20.90;33.30;;;;;;5094886;28;20226;-44
2022/07/16 05:38:50;;;;;;;2.50;1.20;;;20.90;33.50;;;;;;5094780;28;20202;-44
2022/07/16 05:41:17;;;;;;;10.30;1.40;;;21.00;33.40;;;;;;5094663;28;20208;-44
2022/07/16 05:43:42;;;;;;;2.03;0.98;;;21.00;33.40;;;;;;5094800;28;20172;-45
2022/07/16 05:46:08;;;;;;;4.20;2.43;;;21.10;33.50;;;;;;5094503;28;20572;-44
2022/07/16 05:48:34;;;;;;;2.57;1.73;;;21.10;33.10;;;;;;5094517;28;20191;-45
2022/07/16 05:51:00;;;;;;;2.10;1.33;;;21.30;33.40;;;;;;5094742;28;20187;-45
2022/07/16 05:53:26;;;;;;;2.93;1.00;;;21.40;32.80;;;;;;5094537;28;20410;-45
2022/07/16 05:55:51;;;;;;;2.37;1.23;;;21.50;32.60;;;;;;5094281;28;20406;-45
2022/07/16 05:58:17;;;;;;;2.60;1.20;;;21.50;32.60;;;;;;5094442;28;20172;-45
2022/07/16 06:00:43;;;;;;;2.47;1.23;;;21.70;33.20;;;;;;5094154;28;20215;-44
2022/07/16 06:03:09;;;;;;;2.30;1.20;;;21.80;33.10;;;;;;5094305;28;20213;-45
2022/07/16 06:05:35;;;;;;;2.70;1.30;;;21.90;32.30;;;;;;5094098;28;20218;-45
2022/07/16 06:08:02;;;;;;;1.90;1.20;;;22.00;32.50;;;;;;5094260;28;20659;-45
2022/07/16 06:10:28;;;;;;;2.60;1.08;;;22.10;32.00;;;;;;5094199;28;20943;-44
2022/07/16 06:12:53;;;;;;;3.10;1.30;;;22.20;32.50;;;;;;5094122;28;20180;-45
2022/07/16 06:15:19;;;;;;;3.77;1.50;;;22.40;31.70;;;;;;5094060;28;20463;-44
2022/07/16 06:17:45;;;;;;;1.87;1.03;;;22.50;31.40;;;;;;5093863;28;20247;-45
2022/07/16 06:20:12;;;;;;;3.60;1.77;;;22.80;31.10;;;;;;5094071;28;20206;-45
2022/07/16 06:22:38;;;;;;;5.80;1.13;;;22.90;30.60;;;;;;5093945;28;20409;-45
2022/07/16 06:25:04;;;;;;;2.53;1.17;;;22.90;30.20;;;;;;5093972;28;20394;-45
2022/07/16 06:27:30;;;;;;;2.80;1.13;;;22.90;29.60;;;;;;5093647;28;20459;-45
2022/07/16 06:29:56;;;;;;;2.33;2.10;;;22.90;29.70;;;;;;5092537;28;20439;-45
2022/07/16 06:32:21;;;;;;;3.53;1.10;;;22.90;30.00;;;;;;5093775;28;20164;-45
2022/07/16 06:34:47;;;;;;;3.13;1.20;;;22.90;30.00;;;;;;5093891;28;20413;-45
2022/07/16 06:37:13;;;;;;;2.27;1.20;;;22.90;29.40;;;;;;5093478;28;20186;-44
2022/07/16 06:39:41;;;;;;;3.43;1.23;;;22.80;29.80;;;;;;5093569;28;20282;-44
2022/07/16 06:42:06;;;;;;;2.00;0.80;;;22.80;29.30;;;;;;5093536;28;20616;-45
2022/07/16 06:44:32;;;;;;;2.03;1.10;;;22.80;29.70;;;;;;5093569;28;20485;-44
2022/07/16 06:46:58;;;;;;;3.50;1.03;;;22.90;29.40;;;;;;5093175;28;20408;-45
2022/07/16 06:49:24;;;;;;;2.27;1.13;;;22.90;29.40;;;;;;5093616;28;20547;-44
2022/07/16 06:51:50;;;;;;;3.80;1.13;;;22.90;29.70;;;;;;5093685;28;20647;-45
2022/07/16 06:54:15;;;;;;;2.30;0.70;;;23.00;29.70;;;;;;5093430;28;20677;-44
2022/07/16 06:56:41;;;;;;;2.00;0.97;;;23.00;29.90;;;;;;5093082;28;20172;-45
2022/07/16 06:59:07;;;;;;;3.50;1.20;;;22.90;29.80;;;;;;5093402;28;20258;-44
2022/07/16 07:01:33;;;;;;;6.10;2.10;;;22.90;29.20;;;;;;5093012;28;20668;-44
2022/07/16 07:06:26;;;;;;;2.23;1.20;;;22.80;29.70;;;;;;5090639;28;20515;-48
2022/07/16 07:08:52;;;;;;;3.33;1.63;;;22.70;30.20;;;;;;5093087;28;20402;-49
2022/07/16 07:11:18;;;;;;;2.00;1.07;;;22.60;30.60;;;;;;5093035;28;20175;-49
2022/07/16 07:13:44;;;;;;;1.70;0.80;;;22.60;31.00;;;;;;5092913;28;20203;-48
2022/07/16 07:16:10;;;;;;;2.90;1.10;;;22.60;31.20;;;;;;5092769;28;20194;-49
2022/07/16 07:18:36;;;;;;;2.07;1.20;;;22.60;31.60;;;;;;5092630;28;20628;-49
2022/07/16 07:21:02;;;;;;;2.53;1.83;;;22.60;31.70;;;;;;5092706;28;20455;-48
2022/07/16 07:23:28;;;;;;;2.50;1.03;;;22.50;31.70;;;;;;5092800;28;20429;-49
2022/07/16 07:25:55;;;;;;;2.70;1.13;;;22.50;31.90;;;;;;5092044;28;20420;-48
2022/07/16 07:28:21;;;;;;;2.30;1.17;;;22.60;32.30;;;;;;5093013;28;20635;-48
2022/07/16 07:30:47;;;;;;;2.70;1.67;;;22.70;32.50;;;;;;5092674;28;20951;-49
2022/07/16 07:33:14;;;;;;;2.20;1.20;;;22.80;32.40;;;;;;5092862;28;20489;-49
2022/07/16 07:35:40;;;;;;;3.10;1.30;;;22.80;33.10;;;;;;5092386;28;20190;-49
2022/07/16 07:38:06;;;;;;;1.73;1.10;;;22.90;32.60;;;;;;5092678;28;20413;-49
2022/07/16 07:40:32;;;;;;;2.03;1.43;;;22.90;32.60;;;;;;5092491;28;20449;-49
2022/07/16 07:42:59;;;;;;;2.30;1.33;;;23.00;32.70;;;;;;5092495;28;20785;-49
2022/07/16 07:45:26;;;;;;;1.90;0.90;;;23.10;32.80;;;;;;5092286;28;20413;-48
2022/07/16 07:47:52;;;;;;;1.90;1.10;;;23.10;32.30;;;;;;5092128;28;20892;-49
2022/07/16 07:50:18;;;;;;;2.27;1.17;;;23.20;32.40;;;;;;5092512;28;20481;-49
2022/07/16 07:52:44;;;;;;;2.13;1.57;;;23.20;32.80;;;;;;5092380;28;20823;-49
2022/07/16 07:55:10;;;;;;;3.40;1.17;;;23.20;32.10;;;;;;5092292;28;20575;-48
2022/07/16 07:57:36;;;;;;;2.40;1.07;;;23.30;32.20;;;;;;5092286;28;21027;-50
2022/07/16 08:00:04;;;;;;;5.77;1.40;;;23.30;32.10;;;;;;5092327;28;20164;-49
2022/07/16 08:02:29;;;;;;;2.23;1.10;;;23.30;31.40;;;;;;5091982;28;20933;-50
2022/07/16 08:04:55;;;;;;;2.40;1.30;;;23.30;32.30;;;;;;5092052;28;20445;-50
2022/07/16 08:07:21;;;;;;;2.20;1.27;;;23.30;31.10;;;;;;5092026;28;20244;-48
2022/07/16 08:09:47;;;;;;;3.83;1.10;;;23.20;31.80;;;;;;5092393;28;20168;-49
2022/07/16 08:12:12;;;;;;;2.87;1.57;;;23.20;31.90;;;;;;5092216;28;20643;-49
2022/07/16 08:14:38;;;;;;;3.60;1.43;;;23.20;32.00;;;;;;5092353;28;20566;-49
2022/07/16 08:17:04;;;;;;;4.30;1.80;;;23.20;32.40;;;;;;5091803;28;20466;-49
2022/07/16 08:19:33;;;;;;;7.73;2.00;;;23.30;32.20;;;;;;5092033;28;20172;-50
2022/07/16 08:22:00;;;;;;;3.80;1.50;;;23.30;32.70;;;;;;5092027;28;20227;-49
2022/07/16 08:27:11;;;;;;;3.87;1.63;;;23.40;32.80;;;;;;5092152;28;20406;-48
2022/07/16 08:29:37;;;;;;;3.33;1.60;;;23.60;31.90;;;;;;5092165;28;20406;-50
2022/07/16 08:32:03;;;;;;;4.43;1.37;;;23.60;32.20;;;;;;5092150;28;20402;-49
2022/07/16 08:34:29;;;;;;;7.43;1.30;;;23.70;32.30;;;;;;5092006;28;20426;-49
2022/07/16 08:36:55;;;;;;;2.60;1.50;;;23.70;32.30;;;;;;5092019;28;20417;-49
2022/07/16 08:39:21;;;;;;;3.93;1.50;;;23.80;31.90;;;;;;5095311;28;20168;-49
2022/07/16 08:41:47;;;;;;;5.80;2.00;;;23.80;31.90;;;;;;5095820;28;20449;-48
2022/07/16 08:44:14;;;;;;;4.83;1.67;;;23.80;31.00;;;;;;5095875;28;20420;-47
2022/07/16 08:46:41;;;;;;;4.47;1.60;;;23.60;31.10;;;;;;5095539;28;20472;-48
2022/07/16 08:49:07;;;;;;;2.27;1.30;;;23.60;31.50;;;;;;5095767;28;20398;-48
2022/07/16 08:51:35;;;;;;;2.47;1.37;;;23.50;31.80;;;;;;5095702;28;20889;-48
2022/07/16 08:54:12;;;;;;;2.00;1.03;;;23.40;31.80;;;;;;5095569;28;20688;-48
2022/07/16 08:56:38;;;;;;;5.50;1.17;;;23.50;31.80;;;;;;5095373;28;20374;-47
2022/07/16 08:59:05;;;;;;;3.33;1.73;;;23.40;31.80;;;;;;5095619;28;20502;-48
2022/07/16 09:01:32;;;;;;;4.53;1.50;;;23.40;32.20;;;;;;5095444;28;20875;-49
2022/07/16 09:03:59;;;;;;;5.57;1.70;;;23.40;33.40;;;;;;5095418;28;21126;-49
2022/07/16 09:06:26;;;;;;;5.13;1.83;;;23.40;34.60;;;;;;5095123;28;20413;-49
2022/07/16 09:08:52;;;;;;;4.63;1.50;;;23.30;34.90;;;;;;5095401;28;20454;-49
2022/07/16 09:11:24;;;;;;;3.23;1.73;;;23.30;35.90;;;;;;5095361;28;20398;-48
2022/07/16 09:14:07;;;;;;;2.10;1.40;;;23.30;35.70;;;;;;5095461;28;20432;-48
2022/07/16 09:16:43;;;;;;;2.00;1.17;;;23.30;35.50;;;;;;5095149;28;20885;-49
2022/07/16 09:19:16;;;;;;;2.60;1.20;;;23.30;35.70;;;;;;5095266;28;20394;-49
2022/07/16 09:22:06;;;;;;;2.27;1.30;;;23.40;35.50;;;;;;5095307;28;20440;-48
2022/07/16 09:24:40;;;;;;;3.37;1.33;;;23.40;35.00;;;;;;5094958;28;20789;-48
2022/07/16 09:27:14;;;;;;;6.93;1.90;;;23.50;35.60;;;;;;5094853;28;20424;-48
2022/07/16 09:30:03;;;;;;;2.40;1.40;;;23.60;35.20;;;;;;5095196;28;20811;-48
2022/07/16 09:32:34;;;;;;;2.33;1.47;;;23.80;35.00;;;;;;5094922;28;20787;-49
2022/07/16 09:35:13;;;;;;;5.10;2.40;;;24.00;34.40;;;;;;5095088;28;20422;-48
2022/07/16 09:37:56;;;;;;;2.77;2.03;;;24.20;33.70;;;;;;5094640;28;20378;-48
2022/07/16 09:40:35;;;;;;;3.30;2.00;;;24.30;33.40;;;;;;5094701;28;20757;-48
2022/07/16 09:43:01;;;;;;;4.37;1.40;;;24.40;32.80;;;;;;5094791;28;20493;-49
2022/07/16 09:45:27;;;;;;;3.03;1.60;;;24.40;33.00;;;;;;5094439;28;20429;-48
2022/07/16 09:47:53;;;;;;;2.83;1.30;;;24.40;32.40;;;;;;5094528;28;20402;-48
2022/07/16 09:50:19;;;;;;;6.10;1.30;;;24.30;32.20;;;;;;5093087;28;20426;-48
2022/07/16 09:52:45;;;;;;;4.37;1.80;;;24.20;32.00;;;;;;5094440;28;20414;-49
2022/07/16 09:55:11;;;;;;;4.10;1.60;;;24.10;31.50;;;;;;5094437;28;20414;-48
2022/07/16 09:57:37;;;;;;;4.13;1.53;;;24.00;32.80;;;;;;5094361;28;20164;-48
2022/07/16 10:00:11;;;;;;;2.83;1.40;;;23.90;32.10;;;;;;5094500;28;20400;-49
2022/07/16 10:02:37;;;;;;;2.50;1.40;;;23.80;32.00;;;;;;5094342;28;20445;-48
2022/07/16 10:05:03;;;;;;;3.23;1.80;;;23.70;33.10;;;;;;5094168;28;20533;-48
2022/07/16 10:07:28;;;;;;;3.83;2.10;;;23.50;34.00;;;;;;5093965;28;20915;-49
2022/07/16 10:09:54;;;;;;;2.87;1.53;;;23.40;35.20;;;;;;5094305;28;20402;-48
2022/07/16 10:12:21;;;;;;;2.10;1.60;;;23.40;35.70;;;;;;5094255;28;20243;-49
2022/07/16 10:14:54;;;;;;;2.63;1.80;;;23.30;36.60;;;;;;5094061;28;20215;-50
2022/07/16 10:17:38;;;;;;;2.17;1.67;;;23.20;38.40;;;;;;5093924;28;20901;-48
2022/07/16 10:20:11;;;;;;;3.63;2.27;;;23.10;38.00;;;;;;5094086;28;20413;-49
2022/07/16 10:22:42;;;;;;;3.70;1.80;;;23.00;39.30;;;;;;5093947;28;20483;-48
2022/07/16 10:25:22;;;;;;;3.90;2.07;;;22.90;39.90;;;;;;5093832;28;20758;-48
2022/07/16 10:27:49;;;;;;;2.90;1.83;;;22.80;39.50;;;;;;5093724;28;20405;-48
2022/07/16 10:30:18;;;;;;;6.13;2.03;;;22.70;38.60;;;;;;5093676;28;20402;-48
2022/07/16 10:32:59;;;;;;;7.00;1.97;;;22.60;38.80;;;;;;5093943;28;20410;-48
2022/07/16 10:35:37;;;;;;;2.67;1.70;;;22.50;40.10;;;;;;5093589;28;20446;-47
2022/07/16 10:38:07;;;;;;;4.90;2.00;;;22.50;40.00;;;;;;5093830;28;20406;-49
2022/07/16 10:40:33;;;;;;;3.50;1.90;;;22.40;39.40;;;;;;5093549;28;20473;-48
2022/07/16 10:43:14;;;;;;;4.33;2.20;;;22.40;39.90;;;;;;5093835;28;20413;-47
2022/07/16 10:45:56;;;;;;;5.10;2.20;;;22.50;40.10;;;;;;5093205;28;20426;-47
2022/07/16 10:48:30;;;;;;;4.83;2.20;;;22.60;39.90;;;;;;5093455;28;20402;-47
2022/07/16 10:51:16;;;;;;;4.83;2.20;;;22.60;39.50;;;;;;5093485;28;20897;-48
2022/07/16 10:53:57;;;;;;;3.50;1.73;;;22.70;39.70;;;;;;5093461;28;20896;-47
2022/07/16 10:56:36;;;;;;;2.53;1.53;;;22.80;39.30;;;;;;5093180;28;20405;-47
2022/07/16 10:59:07;;;;;;;4.00;1.73;;;22.80;39.10;;;;;;5091945;28;20924;-49
2022/07/16 11:01:35;;;;;;;2.67;1.60;;;22.90;39.90;;;;;;5091079;28;20940;-48
2022/07/16 11:04:04;;;;;;;2.77;1.60;;;23.10;39.60;;;;;;5093014;28;20449;-48
2022/07/16 11:06:31;;;;;;;3.00;2.07;;;23.20;39.30;;;;;;5092827;28;20905;-48
2022/07/16 11:08:58;;;;;;;3.80;2.40;;;23.30;38.70;;;;;;5093141;28;20923;-48
2022/07/16 11:11:34;;;;;;;6.83;2.80;;;23.40;38.70;;;;;;5093014;28;20493;-47
2022/07/16 11:14:01;;;;;;;3.40;1.57;;;23.50;38.70;;;;;;5093048;28;20637;-48
2022/07/16 11:16:27;;;;;;;3.90;1.77;;;23.60;38.60;;;;;;5092708;28;20404;-49
2022/07/16 11:18:53;;;;;;;4.97;2.40;;;23.60;38.00;;;;;;5092934;28;20390;-48
2022/07/16 11:21:19;;;;;;;4.43;2.23;;;23.60;38.20;;;;;;5092917;28;20450;-48
2022/07/16 11:23:52;;;;;;;2.50;1.70;;;23.70;37.90;;;;;;5092900;28;20413;-48
2022/07/16 11:26:22;;;;;;;2.80;1.93;;;23.80;37.40;;;;;;5092668;28;20171;-47
2022/07/16 11:28:56;;;;;;;3.87;1.70;;;23.80;37.00;;;;;;5092747;28;20403;-48
2022/07/16 11:31:25;;;;;;;3.40;1.80;;;23.90;37.50;;;;;;5092747;28;20405;-49
2022/07/16 11:33:53;;;;;;;6.33;2.10;;;24.00;37.10;;;;;;5092723;28;20406;-48
2022/07/16 11:36:19;;;;;;;2.70;2.20;;;24.10;36.30;;;;;;5092550;28;20406;-48
2022/07/16 11:38:46;;;;;;;3.00;1.97;;;24.00;36.30;;;;;;5092628;28;20402;-48
2022/07/16 11:41:12;;;;;;;2.90;2.10;;;24.20;36.40;;;;;;5092417;28;20544;-49
2022/07/16 11:43:38;;;;;;;4.30;2.00;;;24.20;36.30;;;;;;5092455;28;20453;-48
2022/07/16 11:46:04;;;;;;;3.20;1.50;;;24.40;36.60;;;;;;5092265;28;20948;-48
2022/07/16 11:48:37;;;;;;;3.30;2.10;;;24.70;37.10;;;;;;5092303;28;20888;-48
2022/07/16 11:51:08;;;;;;;3.10;2.40;;;25.10;36.40;;;;;;5092428;28;20406;-49
2022/07/16 11:53:36;;;;;;;4.40;2.27;;;25.30;36.30;;;;;;5092504;28;20485;-48
2022/07/16 11:56:02;;;;;;;3.70;1.87;;;25.50;34.90;;;;;;5092029;28;20422;-48
2022/07/16 11:58:29;;;;;;;2.70;1.63;;;25.70;34.40;;;;;;5092321;28;20753;-47
2022/07/16 12:00:55;;;;;;;3.70;2.00;;;25.70;34.20;;;;;;5092178;28;20453;-48
2022/07/16 12:03:21;;;;;;;2.90;1.50;;;25.80;33.50;;;;;;5092124;28;20402;-48
2022/07/16 12:05:47;;;;;;;2.27;1.40;;;25.70;33.50;;;;;;5091933;28;20469;-49
2022/07/16 12:08:14;;;;;;;2.03;1.20;;;25.80;33.10;;;;;;5092194;28;20413;-49
2022/07/16 12:10:40;;;;;;;1.97;1.20;;;25.90;32.60;;;;;;5092063;28;20406;-48
2022/07/16 12:13:09;;;;;;;2.20;1.63;;;26.10;32.40;;;;;;5091953;28;20971;-47
2022/07/16 12:15:55;;;;;;;2.87;1.50;;;26.30;32.30;;;;;;5092020;28;20509;-49
2022/07/16 12:18:21;;;;;;;2.30;1.40;;;26.60;31.90;;;;;;5092065;28;20404;-47
2022/07/16 12:20:47;;;;;;;2.20;1.30;;;26.70;31.90;;;;;;5091944;28;20449;-48
2022/07/16 12:23:14;;;;;;;2.30;1.33;;;27.00;30.70;;;;;;5092008;28;20394;-49
2022/07/16 12:25:59;;;;;;;2.30;1.17;;;27.00;30.10;;;;;;5091948;28;20414;-48
2022/07/16 12:28:25;;;;;;;3.40;2.00;;;27.10;29.60;;;;;;5091587;28;20392;-48
2022/07/16 12:30:56;;;;;;;2.37;1.40;;;27.20;30.40;;;;;;5091919;28;20489;-48
2022/07/16 12:33:24;;;;;;;2.83;0.90;;;27.40;30.00;;;;;;5091909;28;20470;-49
2022/07/16 12:35:51;;;;;;;2.00;1.10;;;27.60;29.40;;;;;;5091697;28;20923;-48
2022/07/16 12:38:50;;;;;;;2.03;1.10;;;27.70;29.10;;;;;;5091934;28;20398;-49
2022/07/16 12:41:16;;;;;;;1.70;0.87;;;28.00;29.70;;;;;;5091916;28;20505;-49
2022/07/16 12:43:44;;;;;;;1.83;1.10;;;28.10;26.90;;;;;;5091721;28;20948;-49
2022/07/16 12:46:10;;;;;;;2.80;1.20;;;28.10;27.60;;;;;;5090349;28;20437;-49
2022/07/16 12:48:47;;;;;;;3.73;1.33;;;28.20;28.30;;;;;;5091759;28;20779;-46
2022/07/16 12:51:15;;;;;;;2.40;1.33;;;28.20;27.60;;;;;;5091794;28;20397;-48
2022/07/16 12:53:41;;;;;;;2.07;1.40;;;28.10;26.70;;;;;;5091774;28;20455;-48
2022/07/16 12:58:52;;;;;;;2.03;0.90;;;27.90;27.60;;;;;;5091967;28;20440;-49
2022/07/16 13:01:19;;;;;;;1.77;0.90;;;27.80;27.20;;;;;;5091746;28;20491;-48
2022/07/16 13:03:46;;;;;;;2.13;1.07;;;27.60;26.70;;;;;;5090382;28;20421;-49